アミルカル・カブラル国際空港の過去48時間の天気

アミルカル・カブラル国際空港 (Sal)

現在時刻: 9/28 07:51 -01 (9/28 08:51 UTC) 以下の時間は現地時間です。

過去48時間のMETAR気象情報
時間 風向 風速(m/s) 視程 気温(℃) 湿度(%) 気圧(hPa) 天気現象
28 07:11 東北東 5 4900m 28 70 1012 風塵
28 07:00 北東 5 6000m 27 79 1012
28 06:00 北東 4 7000m 28 74 1012
28 05:00 北東 5 7000m 28 79 1011
28 04:00 東北東 4 7000m 27 84 1011
28 03:00 東北東 5 7000m 27 84 1011
28 02:00 北東 4 7000m 28 79 1011
28 01:00 北東 5 7000m 28 84 1012
28 00:00 東北東 5 7000m 28 84 1012
27 23:00 東北東 5 7000m 28 84 1012
27 22:00 北東 5 7000m 28 84 1012
27 21:00 北東 5 7000m 28 84 1012
27 20:00 東北東 5 7000m 28 84 1011
27 19:00 東北東 6 7000m 28 84 1010
27 18:00 東北東 6 6000m 29 79 1010
27 17:00 東北東 7 5000m 30 75 1009 煙霧
27 16:00 東北東 7 5000m 30 75 1009 煙霧
27 15:00 北東 6 5000m 30 70 1009 煙霧
27 14:00 北東 5 5000m 30 70 1009 煙霧
27 13:00 5 4800m 30 66 1010 風塵
27 12:00 東北東 5 5000m 30 70 1011 風塵
27 11:00 東北東 5 6000m 30 70 1011
27 10:00 東北東 6 6000m 29 74 1011
27 09:00 北東 6 7000m 28 84 1011
27 08:00 北北東 5 7000m 28 79 1010
27 07:00 北北東 4 9000m 27 84 1010
27 06:00 5 9000m 27 84 1010
27 05:00 4 9000m 27 84 1009
27 04:00 5 10km以上 27 89 1010
27 03:00 6 10km以上 27 89 1010
27 02:00 6 10km以上 27 89 1010
27 01:00 7 10km以上 27 89 1011
27 00:00 7 10km以上 27 89 1011
26 23:00 8 10km以上 27 89 1012
26 22:00 7 10km以上 28 84 1012
26 21:00 6 10km以上 28 84 1012
26 20:00 北北西 6 10km以上 28 84 1012
26 19:00 北北西 7 10km以上 28 84 1011
26 18:00 7 10km以上 29 70 1011
26 17:00 北西 5 10km以上 31 62 1011
26 16:00 北東 4 10km以上 32 46 1012
26 15:00 5 10km以上 32 49 1012
26 14:00 5 10km以上 31 55 1013
26 13:00 5 10km以上 30 70 1014
26 12:00 東北東 7 10km以上 31 66 1015
26 11:00 東北東 6 10km以上 30 70 1015
26 10:00 東北東 4 10km以上 30 70 1015
26 09:00 北東 6 10km以上 29 74 1015
26 08:00 北東 5 10km以上 28 79 1014
GVAC 280811Z 06009KT 4900 DU BKN014 28/22 Q1012 NOSIG
GVAC 280800Z 05010KT 6000 BKN014 27/23 Q1012 NOSIG
GVAC 280700Z 05008KT 7000 BKN014 28/23 Q1012 NOSIG
GVAC 280600Z 05009KT 7000 BKN014 28/24 Q1011 NOSIG
GVAC 280500Z 06008KT 7000 BKN014 27/24 Q1011 NOSIG
GVAC 280400Z 06009KT 7000 BKN014 27/24 Q1011 NOSIG
GVAC 280300Z 05008KT 7000 BKN014 28/24 Q1011 NOSIG
GVAC 280200Z 05010KT 7000 BKN014 28/25 Q1012 NOSIG
GVAC 280100Z 06010KT 7000 BKN014 28/25 Q1012 NOSIG
GVAC 280000Z 06010KT 7000 BKN014 28/25 Q1012 NOSIG
GVAC 272300Z 05010KT 7000 BKN014 28/25 Q1012 NOSIG
GVAC 272200Z 05010KT 7000 BKN014 28/25 Q1012 NOSIG
GVAC 272100Z 07010KT 7000 BKN014 28/25 Q1011 NOSIG
GVAC 272000Z 06011KT 7000 BKN014 28/25 Q1010 NOSIG
GVAC 271900Z 06012KT 6000 SCT014 29/25 Q1010 NOSIG
GVAC 271800Z 07013KT 5000 HZ SCT014 30/25 Q1009 NOSIG
GVAC 271700Z 06013KT 5000 HZ BKN014 30/25 Q1009 NOSIG
GVAC 271600Z 05012KT 5000 HZ BKN014 30/24 Q1009 NOSIG
GVAC 271500Z 05009KT 5000 HZ BKN014 30/24 Q1009 NOSIG
GVAC 271400Z 08010KT 4800 DU BKN014 30/23 Q1010 NOSIG
GVAC 271300Z 07010KT 5000 DU BKN014 30/24 Q1011 NOSIG
GVAC 271200Z 06010KT 6000 BKN014 30/24 Q1011 NOSIG
GVAC 271100Z 06012KT 6000 BKN013 29/24 Q1011 NOSIG
GVAC 271000Z 05012KT 7000 BKN013 28/25 Q1011 NOSIG
GVAC 270900Z 03010KT 7000 BKN013 28/24 Q1010 NOSIG
GVAC 270800Z 03008KT 9000 BKN013 27/24 Q1010 NOSIG
GVAC 270700Z 01009KT 9000 SCT013 BKN200 27/24 Q1010 NOSIG
GVAC 270600Z 01008KT 9000 BKN013 27/24 Q1009 NOSIG
GVAC 270500Z 36009KT 9999 SCT013 BKN200 27/25 Q1010 NOSIG
GVAC 270400Z 36011KT 9999 BKN013 SCT200 27/25 Q1010 NOSIG
GVAC 270300Z 36012KT 9999 BKN013 SCT200 27/25 Q1010 NOSIG
GVAC 270200Z 36014KT 9999 SCT013 SCT200 27/25 Q1011 NOSIG
GVAC 270100Z 35014KT 9999 SCT013 SCT200 27/25 Q1011 NOSIG
GVAC 270000Z 35015KT 9999 SCT013 SCT200 27/25 Q1012 NOSIG
GVAC 262300Z 35014KT 9999 SCT013 28/25 Q1012 NOSIG
GVAC 262200Z 35012KT 9999 FEW013 28/25 Q1012 NOSIG
GVAC 262100Z 33011KT 9999 SCT013 28/25 Q1012 NOSIG
GVAC 262000Z 34014KT 9999 FEW013 28/25 Q1011 NOSIG
GVAC 261900Z 35013KT CAVOK 29/23 Q1011 NOSIG
GVAC 261800Z 31009KT CAVOK 31/23 Q1011 NOSIG
GVAC 261700Z 05007KT CAVOK 32/19 Q1012 NOSIG
GVAC 261600Z 08010KT 9999 FEW013 SCT200 32/20 Q1012 NOSIG
GVAC 261500Z 08010KT 9999 FEW013 31/21 Q1013 NOSIG
GVAC 261400Z 08010KT 9999 FEW013 30/24 Q1014 NOSIG
GVAC 261300Z 07013KT 9999 BKN013 31/24 Q1015 NOSIG
GVAC 261200Z 07011KT 9999 BKN013 30/24 Q1015 NOSIG
GVAC 261100Z 06008KT 9999 FEW013 30/24 Q1015 NOSIG
GVAC 261000Z 05011KT 9999 BKN013 29/24 Q1015 NOSIG
GVAC 260900Z 04010KT 9999 BKN013 28/24 Q1014 NOSIG